Minneapolis, Minnesota
Traffic Map
Current Weather Conditions
Minneapolis, Minnesota
Few Clouds
Few Clouds
83°
Feels Like: 83°
Wind Chill: 83° Ceiling: Unl
Heat Index: 83° Visibility: 10mi
Dew Point: 59° Wind: 10mph
Humidity: 44% Direction: 310° (NW)
Pressure: 30.07in Gusts: 0mph
Raw Report DataKMSP 222253Z 31009KT 10SM FEW055 FEW300 28/15 A3007 RMK AO2 SLP174 T02830150
Traffic Incident Summary
Active as of:
Severity:
Category:
InformationThere was an issue retrieving the traffic information for this location. Please try a different location or try again shortly.
Advertisements
Track Severe Weather on mobile